Humidity-temperature Sensor

Selected Measurement Type: Air Temperature

 
Air Temperature [°C]     6 entries per hour
Showing data from 3/5/2016 (19:00:00 Z) to 3/2/2016 (00:01:00 Z)
Previous Next [ Day | 3-Days | 7-Days ]
First Last
Prev [ Day | 3-Days | 7-Days ] Next
First Last

Start Time:     :
End Time:     :     
Time (in GMT) :00 :50 :40 :30 :20 :10
Previous Next [ Day | 3-Days | 7-Days ]
First Last
Prev [ Day | 3-Days | 7-Days ] Next
First Last


123 => good data
MM => data is determined as missing
-- => data not received/configured
Back to Top Back to Top
3/5/2016 19:00 to 18:10 28.08 28.04 28.13 28.29 28.20 28.06
3/5/2016 18:00 to 17:10 28.01 28.03 28.11 27.95 28.04 28.05
3/5/2016 17:00 to 16:10 28.12 27.90 27.69 27.59 27.69 27.85
3/5/2016 16:00 to 15:10 27.87 27.77 27.81 27.81 27.99 27.69
3/5/2016 15:00 to 14:10 27.73 27.67 27.66 27.67 27.67 27.60
3/5/2016 14:00 to 13:10 27.57 27.65 27.71 27.81 27.77 27.75
3/5/2016 13:00 to 12:10 27.90 27.70 27.71 27.84 27.79 27.73
3/5/2016 12:00 to 11:10 27.75 27.61 27.59 27.59 27.53 27.56
3/5/2016 11:00 to 10:10 27.57 27.58 27.59 27.62 27.52 27.61
3/5/2016 10:00 to 9:10 27.41 27.10 26.67 27.65 27.65 27.57
3/5/2016 09:00 to 8:10 27.59 27.67 27.68 27.49 27.51 27.47
3/5/2016 08:00 to 7:10 27.63 27.57 27.65 27.62 27.65 27.53
3/5/2016 07:00 to 6:10 27.42 27.46 27.46 27.39 27.32 27.31
3/5/2016 06:00 to 5:10 27.29 27.20 27.15 27.06 27.04 27.00
3/5/2016 05:00 to 4:10 27.06 26.98 26.92 26.89 26.96 26.90
3/5/2016 04:00 to 3:10 26.78 27.07 26.88 26.92 26.86 26.84
3/5/2016 03:00 to 2:10 26.71 26.78 26.75 26.67 26.71 26.63
3/5/2016 02:00 to 1:10 26.56 26.70 26.53 26.48 26.50 26.36
3/5/2016 01:00 to 0:10 26.26 26.53 26.42 26.20 26.39 26.21
3/5/2016 00:00 to 23:10 26.35 26.32 26.32 26.44 26.49 26.69
3/4/2016 23:00 to 22:10 26.52 26.51 26.49 26.50 26.47 26.41
3/4/2016 22:00 to 21:10 26.48 26.50 26.47 26.33 26.42 26.49
3/4/2016 21:00 to 20:10 26.53 26.46 26.14 26.43 26.23 26.12
3/4/2016 20:00 to 19:10 26.33 26.15 26.12 26.25 26.06 25.99
3/4/2016 19:00 to 18:10 25.96 25.72 25.94 25.87 26.58 26.71
3/4/2016 18:00 to 17:10 26.63 26.66 26.19 26.23 26.26 26.60
3/4/2016 17:00 to 16:10 26.84 26.86 27.43 27.82 27.86 27.86
3/4/2016 16:00 to 15:10 27.99 28.05 28.22 27.87 27.71 27.68
3/4/2016 15:00 to 14:10 27.65 27.61 27.51 27.53 27.55 27.59
3/4/2016 14:00 to 13:10 27.52 27.47 27.49 27.47 27.33 27.38
3/4/2016 13:00 to 12:10 27.36 27.35 27.32 27.24 27.45 27.35
3/4/2016 12:00 to 11:10 27.35 27.36 27.35 27.35 27.33 27.37
3/4/2016 11:00 to 10:10 27.35 27.37 27.44 27.34 27.48 27.43
3/4/2016 10:00 to 9:10 27.40 27.42 27.33 27.51 27.42 27.47
3/4/2016 09:00 to 8:10 27.48 27.45 27.47 27.42 27.49 27.48
3/4/2016 08:00 to 7:10 27.50 27.44 27.46 27.48 27.38 27.39
3/4/2016 07:00 to 6:10 27.41 27.50 27.47 27.47 27.50 27.42
3/4/2016 06:00 to 5:10 27.47 27.44 27.38 27.54 27.52 27.68
3/4/2016 05:00 to 4:10 27.64 27.63 27.65 27.50 27.58 27.50
3/4/2016 04:00 to 3:10 27.52 27.61 27.50 27.51 27.48 27.56
3/4/2016 03:00 to 2:10 27.47 27.38 27.23 27.41 27.21 27.27
3/4/2016 02:00 to 1:10 27.19 27.25 27.22 27.16 27.29 27.19
3/4/2016 01:00 to 0:10 27.18 27.12 27.11 27.16 26.95 26.81
3/4/2016 00:00 to 23:10 26.79 26.83 26.88 26.79 26.66 26.68
3/3/2016 23:00 to 22:10 26.75 26.76 26.79 26.83 26.86 27.00
3/3/2016 22:00 to 21:10 26.79 26.80 26.69 26.75 26.71 26.71
3/3/2016 21:00 to 20:10 26.82 26.88 26.97 27.25 27.24 27.38
3/3/2016 20:00 to 19:10 27.24 27.21 27.25 27.11 27.09 27.14
3/3/2016 19:00 to 18:10 27.03 26.93 27.12 27.10 26.98 26.97
3/3/2016 18:00 to 17:10 26.86 26.94 26.79 26.90 26.79 26.82
3/3/2016 17:00 to 16:10 26.73 26.66 26.62 26.42 26.35 26.40
3/3/2016 16:00 to 15:10 26.17 26.00 25.94 25.90 25.78 25.60
3/3/2016 15:00 to 14:10 25.53 25.36 25.29 25.17 25.30 25.12
3/3/2016 14:00 to 13:10 24.92 24.87 24.71 24.84 24.94 24.91
3/3/2016 13:00 to 12:10 25.02 24.94 25.02 24.90 24.78 24.80
3/3/2016 12:00 to 11:10 24.79 25.01 25.24 25.21 24.96 25.06
3/3/2016 11:00 to 10:10 24.97 25.45 25.72 26.32 27.45 27.46
3/3/2016 10:00 to 9:10 27.40 27.37 27.40 27.41 27.46 27.56
3/3/2016 09:00 to 8:10 27.47 27.50 27.45 27.33 27.39 27.34
3/3/2016 08:00 to 7:10 27.30 27.27 27.34 27.18 27.19 27.16
3/3/2016 07:00 to 6:10 27.14 27.03 27.16 27.04 26.99 26.93
3/3/2016 06:00 to 5:10 26.97 26.86 26.88 26.91 26.77 26.63
3/3/2016 05:00 to 4:10 26.69 26.64 26.62 26.55 26.40 26.34
3/3/2016 04:00 to 3:10 26.34 26.33 26.30 26.28 26.22 26.20
3/3/2016 03:00 to 2:10 26.23 26.07 26.07 26.15 26.30 26.17
3/3/2016 02:00 to 1:10 25.99 26.25 26.24 26.37 26.51 26.47
3/3/2016 01:00 to 0:10 26.45 26.56 26.46 26.53 26.23 26.05
3/3/2016 00:00 to 23:10 26.37 26.78 26.71 26.61 26.47 26.42
3/2/2016 23:00 to 22:10 26.17 26.36 26.88 26.80 27.10 28.47
3/2/2016 22:00 to 21:10 28.58 28.47 28.35 28.54 28.35 28.32
3/2/2016 21:00 to 20:10 28.24 28.28 28.25 28.17 28.32 28.30
3/2/2016 20:00 to 19:10 28.30 28.29 28.22 28.28 28.23 28.26
3/2/2016 19:00 to 18:10 28.33 28.25 28.35 28.34 28.29 28.20
3/2/2016 18:00 to 17:10 28.25 28.24 28.08 28.06 28.01 27.90
3/2/2016 17:00 to 16:10 27.82 27.87 27.87 27.73 27.61 27.77
3/2/2016 16:00 to 15:10 27.66 27.63 27.64 27.70 27.63 27.64
3/2/2016 15:00 to 14:10 27.68 27.59 27.58 27.56 27.58 27.58
3/2/2016 14:00 to 13:10 27.57 27.59 27.52 27.54 27.55 27.58
3/2/2016 13:00 to 12:10 27.54 27.47 27.55 27.49 27.50 27.45
3/2/2016 12:00 to 11:10 27.55 27.37 27.50 27.51 27.49 27.44
3/2/2016 11:00 to 10:10 27.48 27.47 27.53 27.48 27.45 27.46
3/2/2016 10:00 to 9:10 27.47 27.45 27.45 27.44 27.45 27.46
3/2/2016 09:00 to 8:10 27.48 27.51 27.47 27.56 27.59 27.57
3/2/2016 08:00 to 7:10 27.64 27.57 27.58 27.58 27.53 27.52
3/2/2016 07:00 to 6:10 27.57 27.56 27.65 27.63 27.67 27.68
3/2/2016 06:00 to 5:10 27.64 27.66 27.68 27.68 27.57 27.63
3/2/2016 05:00 to 4:10 27.62 27.58 27.63 27.49 27.49 27.45
3/2/2016 04:00 to 3:10 27.49 27.33 27.30 27.28 27.31 27.24
3/2/2016 03:00 to 2:10 -- -- -- -- -- --
3/2/2016 02:00 to 1:10 27.34 27.31 27.33 27.19 27.11 27.05
3/2/2016 01:00 to 0:10 26.96 26.85 26.82 26.79 26.60 26.57